createdAt,value
2022-09-16T00:01:46.071Z,42.5
2022-09-16T00:06:52.164Z,45
2022-09-16T00:11:57.279Z,42
2022-09-16T00:17:03.398Z,42
2022-09-16T00:22:09.469Z,45
2022-09-16T00:27:15.561Z,42.5
2022-09-16T00:32:21.658Z,45
2022-09-16T00:37:27.757Z,42.5
2022-09-16T00:42:33.858Z,45
2022-09-16T00:47:38.947Z,42.5
2022-09-16T00:52:44.081Z,45
2022-09-16T00:57:50.173Z,42.5
2022-09-16T01:02:56.264Z,42.5
2022-09-16T01:08:02.361Z,42.5
2022-09-16T01:13:08.450Z,45
2022-09-16T01:18:14.539Z,45
2022-09-16T01:23:20.643Z,42.5
2022-09-16T01:28:26.733Z,42.5
2022-09-16T01:33:32.829Z,42.5
2022-09-16T01:38:38.940Z,42.5
2022-09-16T01:43:45.014Z,42
2022-09-16T01:48:51.117Z,42
2022-09-16T01:53:57.201Z,42.5
2022-09-16T01:59:02.315Z,42.5
2022-09-16T02:04:08.418Z,42.5
2022-09-16T02:09:14.503Z,42.5
2022-09-16T02:14:20.616Z,45
2022-09-16T02:19:26.699Z,42.5
2022-09-16T02:24:32.808Z,45
2022-09-16T02:29:38.893Z,42.5
2022-09-16T02:34:44.023Z,42.5
2022-09-16T02:39:49.115Z,42.5
2022-09-16T02:44:54.233Z,42.5
2022-09-16T02:49:59.354Z,42.5
2022-09-16T02:55:05.436Z,42.5
2022-09-16T03:00:11.537Z,42.5
2022-09-16T03:05:17.633Z,42.5
2022-09-16T03:10:23.734Z,42.5
2022-09-16T03:15:29.845Z,42.5
2022-09-16T03:20:35.921Z,42.5
2022-09-16T03:25:42.007Z,42.5
2022-09-16T03:30:48.235Z,42.5
2022-09-16T03:35:54.203Z,42.5
2022-09-16T03:41:00.307Z,42.5
2022-09-16T03:46:06.587Z,42
2022-09-16T03:51:12.496Z,42.5
2022-09-16T03:56:17.598Z,42.5
2022-09-16T04:01:23.691Z,42.5
2022-09-16T04:06:29.850Z,42.5
2022-09-16T04:11:35.900Z,42.5
2022-09-16T04:16:42.026Z,42.5
2022-09-16T04:21:48.077Z,42.5
2022-09-16T04:26:54.173Z,42.5
2022-09-16T04:31:59.300Z,42.5
2022-09-16T04:37:04.446Z,42.5
2022-09-16T04:42:09.525Z,42
2022-09-16T04:47:14.626Z,42.5
2022-09-16T04:52:20.739Z,42.5
2022-09-16T04:57:26.825Z,42.5
2022-09-16T05:02:32.921Z,42.5
2022-09-16T05:07:39.014Z,42.5
2022-09-16T05:12:45.106Z,42
2022-09-16T05:17:51.210Z,42.5
2022-09-16T05:22:57.301Z,42.5
2022-09-16T05:28:03.389Z,42.5
2022-09-16T05:33:09.501Z,42.5
2022-09-16T05:38:15.574Z,42
2022-09-16T05:43:21.677Z,42.5
2022-09-16T05:48:27.768Z,42.5
2022-09-16T05:53:32.884Z,42.5
2022-09-16T05:58:38.992Z,42
2022-09-16T06:03:45.081Z,42.5
2022-09-16T06:08:51.174Z,42.5
2022-09-16T06:13:57.275Z,42.5
2022-09-16T06:19:03.378Z,42.5
2022-09-16T06:24:09.465Z,42
2022-09-16T06:29:14.567Z,42.5
2022-09-16T06:34:19.685Z,42.5
2022-09-16T06:39:24.817Z,42.5
2022-09-16T06:44:29.916Z,42.5
2022-09-16T06:49:35.018Z,42.5
2022-09-16T06:54:40.131Z,42.5
2022-09-16T06:59:46.223Z,42.5
2022-09-16T07:04:52.339Z,42.5
2022-09-16T07:09:58.428Z,42.5
2022-09-16T07:15:04.512Z,42.5
2022-09-16T07:20:10.638Z,42.5
2022-09-16T07:25:16.698Z,42.5
2022-09-16T07:30:22.852Z,42.5
2022-09-16T07:35:28.938Z,42.5
2022-09-16T07:40:34.996Z,40
2022-09-16T07:45:41.081Z,42.5
2022-09-16T07:50:47.183Z,42.5
2022-09-16T07:55:53.292Z,42.5
2022-09-16T08:00:58.412Z,42.5
2022-09-16T08:06:04.648Z,42.5
2022-09-16T08:11:10.571Z,42.5
2022-09-16T08:16:16.674Z,42.5
2022-09-16T08:21:22.846Z,42
2022-09-16T08:26:28.903Z,42.5
2022-09-16T08:31:35.014Z,42
2022-09-16T08:36:40.105Z,42.5
2022-09-16T08:41:45.179Z,42.5
2022-09-16T08:46:51.273Z,42
2022-09-16T08:51:57.474Z,39.5
2022-09-16T08:57:03.525Z,40
2022-09-16T09:02:09.604Z,40
2022-09-16T09:07:15.683Z,40
2022-09-16T09:12:21.881Z,42.5
2022-09-16T09:17:27.832Z,42
2022-09-16T09:22:33.024Z,42.5
2022-09-16T09:27:38.116Z,40
2022-09-16T09:32:43.214Z,42.5
2022-09-16T09:37:48.288Z,40
2022-09-16T09:42:54.416Z,40
2022-09-16T09:48:00.502Z,40
2022-09-16T09:53:06.677Z,40
2022-09-16T09:58:12.792Z,40
2022-09-16T10:03:18.780Z,40
2022-09-16T10:08:24.874Z,40
2022-09-16T10:13:30.984Z,40
2022-09-16T10:18:37.046Z,40
2022-09-16T10:23:43.152Z,40
2022-09-16T10:28:49.248Z,40
2022-09-16T10:33:55.326Z,40
2022-09-16T10:39:01.422Z,40
2022-09-16T10:44:06.551Z,40
2022-09-16T10:49:12.629Z,42.5
2022-09-16T10:54:18.723Z,42.5
2022-09-16T10:59:24.907Z,42.5
2022-09-16T11:04:30.918Z,42.5
2022-09-16T11:09:37.000Z,40
2022-09-16T11:14:43.089Z,40
2022-09-16T11:19:48.206Z,40
2022-09-16T11:24:53.397Z,40
2022-09-16T11:29:58.530Z,40
2022-09-16T11:35:03.557Z,40
2022-09-16T11:40:09.650Z,40
2022-09-16T11:45:15.729Z,39
2022-09-16T11:50:21.850Z,40
2022-09-16T11:55:27.930Z,40
2022-09-16T12:05:40.153Z,40
2022-09-16T12:10:46.202Z,39
2022-09-16T12:15:52.319Z,39
2022-09-16T12:20:58.383Z,40
2022-09-16T12:31:10.571Z,40
2022-09-16T12:36:15.724Z,40
2022-09-16T12:41:20.824Z,39
2022-09-16T12:46:26.912Z,40
2022-09-16T12:51:33.108Z,40
2022-09-16T12:56:39.108Z,39
2022-09-16T13:01:45.206Z,39
2022-09-16T13:06:51.294Z,38.5
2022-09-16T13:11:57.386Z,39
2022-09-16T13:17:03.487Z,39
2022-09-16T13:22:09.563Z,39
2022-09-16T13:27:15.661Z,39
2022-09-16T13:32:20.782Z,39
2022-09-16T13:37:25.910Z,39
2022-09-16T13:42:31.983Z,39
2022-09-16T13:47:38.086Z,39
2022-09-16T13:52:44.177Z,39
2022-09-16T13:57:49.292Z,39
2022-09-16T14:02:55.405Z,38.5
2022-09-16T14:08:01.476Z,38.5
2022-09-16T14:13:07.704Z,38.5
2022-09-16T14:18:13.696Z,38.5
2022-09-16T14:23:19.747Z,38.5
2022-09-16T14:28:25.992Z,39
2022-09-16T14:33:31.950Z,39
2022-09-16T14:38:38.205Z,39
2022-09-16T14:43:44.142Z,39
2022-09-16T14:48:50.394Z,38.5
2022-09-16T14:53:56.469Z,39
2022-09-16T14:59:02.419Z,39
2022-09-16T15:04:07.678Z,39
2022-09-16T15:09:13.740Z,39
2022-09-16T15:14:19.861Z,38.5
2022-09-16T15:19:24.837Z,39
2022-09-16T15:24:30.114Z,38.5
2022-09-16T15:29:36.196Z,39
2022-09-16T15:34:41.265Z,38.5
2022-09-16T15:39:48.655Z,37.5
2022-09-16T15:44:52.512Z,37.5
2022-09-16T15:49:58.606Z,39
2022-09-16T15:55:04.690Z,38.5
2022-09-16T16:00:10.793Z,38.5
2022-09-16T16:05:16.908Z,39
2022-09-16T16:10:22.972Z,37.5
2022-09-16T16:15:28.933Z,37.5
2022-09-16T16:20:35.156Z,37.5
2022-09-16T16:25:41.288Z,37.5
2022-09-16T16:30:47.223Z,39
2022-09-16T16:35:53.425Z,37.5
2022-09-16T16:40:59.391Z,37.5
2022-09-16T16:46:04.657Z,37.5
2022-09-16T16:51:10.775Z,37.5
2022-09-16T16:56:16.846Z,37.5
2022-09-16T17:01:22.890Z,37.5
2022-09-16T17:06:29.039Z,37.5
2022-09-16T17:11:35.125Z,37.5
2022-09-16T17:21:47.174Z,37.5
2022-09-16T17:26:52.416Z,37.5
2022-09-16T17:31:57.555Z,37.5
2022-09-16T17:37:03.523Z,37.5
2022-09-16T17:42:09.764Z,37.5
2022-09-16T17:47:15.803Z,37.5
2022-09-16T17:52:21.921Z,37.5
2022-09-16T17:57:27.999Z,37.5
2022-09-16T18:02:34.115Z,37.5
2022-09-16T18:07:40.195Z,37.5
2022-09-16T18:12:46.308Z,37.5
2022-09-16T18:17:52.413Z,37.5
2022-09-16T18:22:58.372Z,37.5
2022-09-16T18:28:04.586Z,37.5
2022-09-16T18:33:10.695Z,37.5
2022-09-16T18:38:15.792Z,37.5
2022-09-16T18:43:21.888Z,37.5
2022-09-16T18:48:27.834Z,37.5
2022-09-16T18:53:33.922Z,37.5
2022-09-16T18:58:40.177Z,37.5
2022-09-16T19:03:46.208Z,37.5
2022-09-16T19:08:52.232Z,37.5
2022-09-16T19:13:57.414Z,37.5
2022-09-16T19:19:02.447Z,37.5
2022-09-16T19:24:07.586Z,37.5
2022-09-16T19:29:12.770Z,37.5
2022-09-16T19:34:17.899Z,37.5
2022-09-16T19:39:23.030Z,37.5
2022-09-16T19:44:29.130Z,37.5
2022-09-16T19:49:35.079Z,37.5
2022-09-16T19:54:41.308Z,37.5
2022-09-16T19:59:47.270Z,37.5
2022-09-16T20:04:53.473Z,37.5
2022-09-16T20:09:59.555Z,37.5
2022-09-16T20:15:05.668Z,37.5
2022-09-16T20:20:11.664Z,37.5
2022-09-16T20:25:17.862Z,37.5
2022-09-16T20:30:23.849Z,37.5
2022-09-16T20:35:29.942Z,37.5
2022-09-16T20:40:36.138Z,37.5
2022-09-16T20:45:41.168Z,37.5
2022-09-16T20:50:47.285Z,37.5
2022-09-16T20:55:53.517Z,37.5
2022-09-16T21:00:59.591Z,37.5
2022-09-16T21:06:05.627Z,37.5
2022-09-16T21:11:11.764Z,37.5
2022-09-16T21:16:17.836Z,37.5
2022-09-16T21:21:22.838Z,37.5
2022-09-16T21:26:28.024Z,37.5
2022-09-16T21:31:33.096Z,37.5
2022-09-16T21:36:38.327Z,37.5
2022-09-16T21:41:44.386Z,37.5
2022-09-16T21:46:50.482Z,37.5
2022-09-16T21:51:56.610Z,37.5
2022-09-16T21:57:02.701Z,37.5
2022-09-16T22:02:08.786Z,37.5
2022-09-16T22:07:14.902Z,37.5
2022-09-16T22:12:20.976Z,37.5
2022-09-16T22:17:27.079Z,37.5
2022-09-16T22:22:33.196Z,37.5
2022-09-16T22:27:39.186Z,37.5
2022-09-16T22:32:45.306Z,37.5
2022-09-16T22:37:51.448Z,37.5
2022-09-16T22:42:56.446Z,37.5
2022-09-16T22:48:02.661Z,37.5
2022-09-16T22:53:08.662Z,37.5
2022-09-16T22:58:14.710Z,37.5
2022-09-16T23:03:20.928Z,37.5
2022-09-16T23:08:26.980Z,37.5
2022-09-16T23:13:33.065Z,37.5
2022-09-16T23:18:38.276Z,37.5
2022-09-16T23:23:43.330Z,37.5
2022-09-16T23:28:49.424Z,37.5
2022-09-16T23:33:55.560Z,37.5
2022-09-16T23:39:01.538Z,37.5
2022-09-16T23:44:07.609Z,37.5
2022-09-16T23:49:13.693Z,36.5
2022-09-16T23:54:19.913Z,37.5
2022-09-16T23:59:26.018Z,37.5
